ADDS METAR Data

Data at: 0458 UTC 20 Apr 2018

METAR for:KFMH (Otis ANGB, MA, US)
Text:KFMH 200455Z AUTO 30010KT 10SM 04/01 A2984 RMK AO2
Temperature: 4.0°C ( 39°F)
Dewpoint: 1.0°C ( 34°F) [RH = 81%]
Pressure (altimeter):29.84 inches Hg (1010.6 mb)
Winds:from the WNW (300 degrees) at 12 MPH (10 knots; 5.1 m/s)
Visibility:10 or more sm (16+ km)
QC Flag:automated observation with no human augmentation